createdAt,value
2016-11-17T00:00:32.840Z,0
2016-11-17T00:01:43.875Z,0
2016-11-17T00:02:54.967Z,0
2016-11-17T00:04:06.013Z,0
2016-11-17T00:05:17.244Z,0
2016-11-17T00:06:28.283Z,0
2016-11-17T00:07:39.303Z,0
2016-11-17T00:08:50.409Z,0
2016-11-17T00:10:01.639Z,0
2016-11-17T00:11:12.668Z,0
2016-11-17T00:12:23.730Z,0
2016-11-17T00:13:34.771Z,0
2016-11-17T00:14:46.061Z,0
2016-11-17T00:15:57.097Z,0
2016-11-17T00:17:08.125Z,0
2016-11-17T00:18:19.159Z,0
2016-11-17T00:19:30.200Z,0
2016-11-17T00:20:41.291Z,0
2016-11-17T00:21:52.310Z,0
2016-11-17T00:23:03.341Z,0
2016-11-17T00:24:14.375Z,0
2016-11-17T00:25:25.611Z,0
2016-11-17T00:26:36.698Z,0
2016-11-17T00:27:47.934Z,0
2016-11-17T00:28:59.160Z,0
2016-11-17T00:30:10.192Z,0
2016-11-17T00:31:21.248Z,0
2016-11-17T00:32:32.331Z,0
2016-11-17T00:33:43.364Z,0
2016-11-17T00:34:54.391Z,0
2016-11-17T00:36:05.423Z,0
2016-11-17T00:37:16.647Z,0
2016-11-17T00:38:27.725Z,0
2016-11-17T00:39:38.749Z,0
2016-11-17T00:40:49.780Z,0
2016-11-17T00:42:00.814Z,0
2016-11-17T00:43:11.896Z,0
2016-11-17T00:44:23.188Z,0
2016-11-17T00:45:34.222Z,0
2016-11-17T00:46:45.283Z,0
2016-11-17T00:47:56.513Z,0
2016-11-17T00:49:07.538Z,0
2016-11-17T00:50:18.624Z,0
2016-11-17T00:51:29.853Z,0
2016-11-17T00:52:40.884Z,0
2016-11-17T00:53:51.926Z,0
2016-11-17T00:55:02.964Z,0
2016-11-17T00:56:14.078Z,0
2016-11-17T00:57:25.094Z,0
2016-11-17T00:58:36.323Z,0
2016-11-17T00:59:47.348Z,0
2016-11-17T01:00:58.383Z,0
2016-11-17T01:02:09.652Z,0
2016-11-17T01:03:20.886Z,0
2016-11-17T01:04:31.921Z,0
2016-11-17T01:05:42.953Z,0
2016-11-17T01:06:53.986Z,0
2016-11-17T01:08:05.477Z,0
2016-11-17T01:09:16.511Z,0
2016-11-17T01:10:27.539Z,0
2016-11-17T01:11:38.589Z,0
2016-11-17T01:12:49.826Z,0
2016-11-17T01:14:00.908Z,0
2016-11-17T01:15:11.999Z,0
2016-11-17T01:16:23.029Z,0
2016-11-17T01:17:34.063Z,0
2016-11-17T01:18:45.116Z,0
2016-11-17T01:19:56.199Z,0
2016-11-17T01:21:07.236Z,0
2016-11-17T01:22:18.270Z,0
2016-11-17T01:23:29.295Z,0
2016-11-17T01:24:40.529Z,0
2016-11-17T01:25:51.591Z,0
2016-11-17T01:27:02.614Z,0
2016-11-17T01:28:13.656Z,0
2016-11-17T01:29:24.690Z,0
2016-11-17T01:30:35.733Z,0
2016-11-17T01:31:47.017Z,0
2016-11-17T01:32:58.260Z,0
2016-11-17T01:34:09.493Z,0
2016-11-17T01:35:20.518Z,0
2016-11-17T01:36:31.555Z,0
2016-11-17T01:37:42.638Z,0
2016-11-17T01:38:53.664Z,0
2016-11-17T01:40:04.708Z,0
2016-11-17T01:41:15.773Z,0
2016-11-17T01:42:26.994Z,0
2016-11-17T01:43:38.074Z,0
2016-11-17T01:44:49.108Z,0
2016-11-17T01:46:00.555Z,0
2016-11-17T01:47:11.613Z,0
2016-11-17T01:48:22.638Z,0
2016-11-17T01:49:33.912Z,0
2016-11-17T01:50:44.945Z,0
2016-11-17T01:51:55.970Z,0
2016-11-17T01:53:07.210Z,0
2016-11-17T01:54:18.259Z,0
2016-11-17T01:55:29.338Z,0
2016-11-17T01:56:40.771Z,0
2016-11-17T01:57:51.805Z,0
2016-11-17T01:59:02.831Z,0
2016-11-17T02:00:14.055Z,0
2016-11-17T02:01:25.138Z,0
2016-11-17T02:02:36.156Z,0
2016-11-17T02:03:47.181Z,0
2016-11-17T02:04:58.211Z,0
2016-11-17T02:06:09.242Z,0
2016-11-17T02:07:20.340Z,0
2016-11-17T02:08:31.407Z,0
2016-11-17T02:09:42.454Z,0
2016-11-17T02:10:53.696Z,0
2016-11-17T02:12:04.729Z,0
2016-11-17T02:13:15.808Z,0
2016-11-17T02:14:27.040Z,0
2016-11-17T02:15:38.064Z,0
2016-11-17T02:16:49.079Z,0
2016-11-17T02:18:00.132Z,0
2016-11-17T02:19:11.210Z,0
2016-11-17T02:20:22.253Z,0
2016-11-17T02:21:33.288Z,0
2016-11-17T02:22:44.319Z,0
2016-11-17T02:23:55.355Z,0
2016-11-17T02:25:06.440Z,0
2016-11-17T02:26:17.484Z,0
2016-11-17T02:27:28.511Z,0
2016-11-17T02:28:39.556Z,0
2016-11-17T02:29:50.785Z,0
2016-11-17T02:31:01.869Z,0
2016-11-17T02:32:13.102Z,0
2016-11-17T02:33:24.138Z,0
2016-11-17T02:34:35.175Z,0
2016-11-17T02:35:46.403Z,0
2016-11-17T02:36:57.701Z,0
2016-11-17T02:38:08.729Z,0
2016-11-17T02:39:19.756Z,0
2016-11-17T02:40:30.794Z,0
2016-11-17T02:41:42.023Z,0
2016-11-17T02:42:53.110Z,0
2016-11-17T02:44:04.155Z,0
2016-11-17T02:45:15.385Z,0
2016-11-17T02:46:26.612Z,0
2016-11-17T02:47:37.641Z,0
2016-11-17T02:48:48.741Z,0
2016-11-17T02:49:59.770Z,0
2016-11-17T02:51:10.802Z,0
2016-11-17T02:52:22.029Z,0
2016-11-17T02:53:33.055Z,0
2016-11-17T02:54:44.136Z,0
2016-11-17T02:55:55.169Z,0
2016-11-17T02:57:06.196Z,0
2016-11-17T02:58:17.225Z,0
2016-11-17T02:59:28.248Z,0
2016-11-17T03:00:39.535Z,0
2016-11-17T03:01:50.561Z,0
2016-11-17T03:03:01.594Z,0
2016-11-17T03:04:12.630Z,0
2016-11-17T03:05:23.658Z,0
2016-11-17T03:06:34.777Z,0
2016-11-17T03:07:45.799Z,0
2016-11-17T03:08:56.843Z,0
2016-11-17T03:10:08.072Z,0
2016-11-17T03:11:19.315Z,0
2016-11-17T03:12:30.388Z,0
2016-11-17T03:13:41.454Z,0
2016-11-17T03:14:52.481Z,0
2016-11-17T03:16:03.525Z,0
2016-11-17T03:17:14.568Z,0
2016-11-17T03:18:25.644Z,0
2016-11-17T03:19:36.704Z,0
2016-11-17T03:20:47.747Z,0
2016-11-17T03:21:58.782Z,0
2016-11-17T03:23:09.849Z,0
2016-11-17T03:24:20.928Z,0
2016-11-17T03:25:32.150Z,0
2016-11-17T03:26:43.191Z,0
2016-11-17T03:27:54.260Z,0
2016-11-17T03:29:05.279Z,0
2016-11-17T03:30:16.371Z,0
2016-11-17T03:31:27.395Z,0
2016-11-17T03:32:38.421Z,0
2016-11-17T03:33:49.455Z,0
2016-11-17T03:35:00.478Z,0
2016-11-17T03:36:11.596Z,0
2016-11-17T03:37:22.634Z,0
2016-11-17T03:38:33.674Z,0
2016-11-17T03:39:44.704Z,0
2016-11-17T03:40:55.732Z,0
2016-11-17T03:42:06.808Z,0
2016-11-17T03:43:17.849Z,0
2016-11-17T03:44:28.884Z,0
2016-11-17T03:45:39.918Z,0
2016-11-17T03:46:50.942Z,0
2016-11-17T03:48:02.034Z,0
2016-11-17T03:49:13.057Z,0
2016-11-17T03:50:24.095Z,0
2016-11-17T03:51:35.129Z,0
2016-11-17T03:52:46.152Z,0
2016-11-17T03:53:57.256Z,0
2016-11-17T03:55:08.284Z,0
2016-11-17T03:56:19.315Z,0
2016-11-17T03:57:30.379Z,0
2016-11-17T03:58:41.416Z,0
2016-11-17T03:59:52.507Z,0
2016-11-17T04:01:03.540Z,0
2016-11-17T04:02:14.569Z,0
2016-11-17T04:03:25.602Z,0
2016-11-17T04:04:36.647Z,0
2016-11-17T04:05:47.731Z,0
2016-11-17T04:06:58.972Z,0
2016-11-17T04:08:09.995Z,0
2016-11-17T04:09:21.039Z,0
2016-11-17T04:10:32.073Z,0
2016-11-17T04:11:43.153Z,0
2016-11-17T04:12:54.188Z,0
2016-11-17T04:14:05.265Z,0
2016-11-17T04:15:16.302Z,0
2016-11-17T04:16:27.347Z,0
2016-11-17T04:17:38.432Z,0
2016-11-17T04:18:49.459Z,0
2016-11-17T04:20:00.691Z,0
2016-11-17T04:21:11.716Z,0
2016-11-17T04:22:22.745Z,0
2016-11-17T04:23:33.837Z,0
2016-11-17T04:24:44.866Z,0
2016-11-17T04:25:56.086Z,0
2016-11-17T04:27:07.126Z,0
2016-11-17T04:28:18.152Z,0
2016-11-17T04:29:29.429Z,0
2016-11-17T04:30:40.462Z,0
2016-11-17T04:31:51.498Z,0
2016-11-17T04:33:02.520Z,0
2016-11-17T04:34:13.554Z,0
2016-11-17T04:35:24.885Z,0
2016-11-17T04:36:35.926Z,0
2016-11-17T04:37:46.967Z,0
2016-11-17T04:38:58.000Z,0
2016-11-17T04:40:09.041Z,0
2016-11-17T04:41:20.118Z,0
2016-11-17T04:42:31.146Z,0
2016-11-17T04:43:42.166Z,0
2016-11-17T04:44:53.396Z,0
2016-11-17T04:46:04.468Z,0
2016-11-17T04:47:15.553Z,0
2016-11-17T04:48:26.584Z,0
2016-11-17T04:49:37.614Z,0
2016-11-17T04:50:48.857Z,0
2016-11-17T04:51:59.927Z,0
2016-11-17T04:53:11.012Z,0
2016-11-17T04:54:22.051Z,0
2016-11-17T04:55:33.077Z,0
2016-11-17T04:56:44.104Z,0
2016-11-17T04:57:55.163Z,0
2016-11-17T04:59:06.252Z,0
2016-11-17T05:00:17.477Z,0
2016-11-17T05:01:28.506Z,0
2016-11-17T05:02:39.540Z,0
2016-11-17T05:03:50.779Z,0
2016-11-17T05:05:01.853Z,0
2016-11-17T05:06:12.900Z,0
2016-11-17T05:07:24.135Z,0
2016-11-17T05:08:35.153Z,0
2016-11-17T05:09:46.186Z,0
2016-11-17T05:10:57.268Z,0
2016-11-17T05:12:08.318Z,0
2016-11-17T05:13:19.359Z,0
2016-11-17T05:14:30.397Z,0
2016-11-17T05:15:41.427Z,0
2016-11-17T05:16:52.544Z,0
2016-11-17T05:18:03.781Z,0
2016-11-17T05:19:14.821Z,0
2016-11-17T05:20:25.853Z,0
2016-11-17T05:21:36.877Z,0
2016-11-17T05:22:48.369Z,0
2016-11-17T05:23:59.607Z,0
2016-11-17T05:25:10.647Z,0
2016-11-17T05:26:21.683Z,0
2016-11-17T05:27:32.704Z,0
2016-11-17T05:28:43.794Z,0
2016-11-17T05:29:55.031Z,0
2016-11-17T05:31:06.096Z,0
2016-11-17T05:32:17.127Z,0
2016-11-17T05:33:28.153Z,0
2016-11-17T05:34:39.462Z,0
2016-11-17T05:35:50.498Z,0
2016-11-17T05:37:01.525Z,0
2016-11-17T05:38:12.561Z,0
2016-11-17T05:39:23.582Z,0
2016-11-17T05:40:34.663Z,0
2016-11-17T05:41:45.900Z,0
2016-11-17T05:42:56.939Z,0
2016-11-17T05:44:07.978Z,0
2016-11-17T05:45:19.016Z,0
2016-11-17T05:46:30.090Z,0
2016-11-17T05:47:41.116Z,0
2016-11-17T05:48:52.139Z,0
2016-11-17T05:50:03.168Z,0
2016-11-17T05:51:14.212Z,0
2016-11-17T05:52:25.494Z,0
2016-11-17T05:53:36.925Z,0
2016-11-17T05:54:47.962Z,0
2016-11-17T05:55:58.990Z,0
2016-11-17T05:57:10.012Z,0
2016-11-17T05:58:21.086Z,0
2016-11-17T05:59:32.322Z,0
2016-11-17T06:00:43.356Z,0
2016-11-17T06:01:54.388Z,0
2016-11-17T06:03:05.404Z,0
2016-11-17T06:04:16.697Z,0
2016-11-17T06:05:27.738Z,0
2016-11-17T06:06:38.785Z,0
2016-11-17T06:07:49.814Z,0
2016-11-17T06:09:00.829Z,0
2016-11-17T06:10:11.930Z,0
2016-11-17T06:11:22.960Z,0
2016-11-17T06:12:33.992Z,0
2016-11-17T06:13:45.216Z,0
2016-11-17T06:14:56.251Z,0
2016-11-17T06:16:07.336Z,0
2016-11-17T06:17:18.572Z,0
2016-11-17T06:18:29.624Z,0
2016-11-17T06:19:40.686Z,0
2016-11-17T06:20:51.708Z,0
2016-11-17T06:22:02.983Z,0
2016-11-17T06:23:14.220Z,0
2016-11-17T06:24:25.240Z,0
2016-11-17T06:25:36.264Z,0
2016-11-17T06:26:47.305Z,0
2016-11-17T06:27:58.595Z,0
2016-11-17T06:29:09.649Z,0
2016-11-17T06:30:20.680Z,0
2016-11-17T06:31:31.927Z,0
2016-11-17T06:32:42.962Z,0
2016-11-17T06:33:54.036Z,0
2016-11-17T06:35:05.083Z,0
2016-11-17T06:36:16.127Z,0
2016-11-17T06:37:27.151Z,0
2016-11-17T06:38:38.368Z,0
2016-11-17T06:39:49.446Z,0
2016-11-17T06:41:00.479Z,0
2016-11-17T06:42:11.517Z,0
2016-11-17T06:43:22.749Z,0
2016-11-17T06:44:33.790Z,0
2016-11-17T06:45:44.867Z,0
2016-11-17T06:46:55.893Z,0
2016-11-17T06:48:06.931Z,0
2016-11-17T06:49:17.967Z,0
2016-11-17T06:50:29.003Z,0
2016-11-17T06:51:40.085Z,0
2016-11-17T06:52:51.113Z,0
2016-11-17T06:54:02.362Z,0
2016-11-17T06:55:13.393Z,0
2016-11-17T06:56:24.435Z,0
2016-11-17T06:57:35.517Z,0
2016-11-17T06:58:46.545Z,0
2016-11-17T06:59:57.572Z,0
2016-11-17T07:01:08.599Z,5
2016-11-17T07:02:19.621Z,0
2016-11-17T07:03:30.701Z,0
2016-11-17T07:04:41.748Z,0
2016-11-17T07:05:52.791Z,0
2016-11-17T07:07:03.841Z,0
2016-11-17T07:08:14.888Z,0
2016-11-17T07:09:25.969Z,0
2016-11-17T07:10:37.004Z,5
2016-11-17T07:11:48.241Z,5
2016-11-17T07:12:59.274Z,5
2016-11-17T07:14:10.524Z,5
2016-11-17T07:15:21.839Z,5
2016-11-17T07:16:32.861Z,5
2016-11-17T07:17:43.901Z,5
2016-11-17T07:18:54.936Z,10
2016-11-17T07:20:05.966Z,15
2016-11-17T07:21:17.058Z,20
2016-11-17T07:22:28.083Z,20
2016-11-17T07:23:39.111Z,20
2016-11-17T07:24:50.146Z,20
2016-11-17T07:26:01.179Z,30
2016-11-17T07:27:12.280Z,40
2016-11-17T07:28:23.320Z,50
2016-11-17T07:29:34.744Z,55
2016-11-17T07:30:45.764Z,45
2016-11-17T07:31:56.791Z,40
2016-11-17T07:33:07.866Z,45
2016-11-17T07:34:18.885Z,55
2016-11-17T07:35:30.126Z,60
2016-11-17T07:36:41.148Z,65
2016-11-17T07:37:52.177Z,60
2016-11-17T07:39:03.288Z,50
2016-11-17T07:40:14.517Z,45
2016-11-17T07:41:25.589Z,50
2016-11-17T07:42:36.624Z,55
2016-11-17T07:43:47.651Z,55
2016-11-17T07:44:58.730Z,45
2016-11-17T07:46:09.754Z,55
2016-11-17T07:47:20.792Z,55
2016-11-17T07:48:31.832Z,55
2016-11-17T07:49:42.863Z,50
2016-11-17T07:50:53.953Z,50
2016-11-17T07:52:04.994Z,45
2016-11-17T07:53:16.032Z,45
2016-11-17T07:54:27.056Z,55
2016-11-17T07:55:38.286Z,65
2016-11-17T07:56:49.387Z,70
2016-11-17T07:58:00.621Z,65
2016-11-17T07:59:11.656Z,75
2016-11-17T08:00:22.905Z,65
2016-11-17T08:01:33.922Z,65
2016-11-17T08:02:45.007Z,80
2016-11-17T08:03:56.076Z,65
2016-11-17T08:05:07.320Z,65
2016-11-17T08:06:18.384Z,55
2016-11-17T08:07:29.417Z,65
2016-11-17T08:08:40.500Z,65
2016-11-17T08:09:51.880Z,65
2016-11-17T08:11:03.124Z,105
2016-11-17T08:12:14.149Z,130
2016-11-17T08:13:25.182Z,130
2016-11-17T08:14:36.258Z,130
2016-11-17T08:15:47.488Z,125
2016-11-17T08:16:58.529Z,120
2016-11-17T08:18:09.767Z,115
2016-11-17T08:19:20.792Z,120
2016-11-17T08:20:31.883Z,125
2016-11-17T08:21:42.917Z,140
2016-11-17T08:22:53.969Z,155
2016-11-17T08:24:04.990Z,160
2016-11-17T08:25:16.022Z,170
2016-11-17T08:26:27.108Z,170
2016-11-17T08:27:38.126Z,155
2016-11-17T08:28:49.164Z,135
2016-11-17T08:30:00.187Z,115
2016-11-17T08:31:11.222Z,95
2016-11-17T08:32:22.375Z,90
2016-11-17T08:33:33.390Z,85
2016-11-17T08:34:44.414Z,90
2016-11-17T08:35:55.450Z,115
2016-11-17T08:37:06.481Z,140
2016-11-17T08:38:17.599Z,160
2016-11-17T08:39:28.631Z,195
2016-11-17T08:40:39.661Z,280
2016-11-17T08:41:50.892Z,325
2016-11-17T08:43:01.921Z,360
2016-11-17T08:44:13.214Z,215
2016-11-17T08:45:24.257Z,195
2016-11-17T08:46:35.303Z,200
2016-11-17T08:47:46.532Z,190
2016-11-17T08:48:57.569Z,170
2016-11-17T08:50:08.636Z,160
2016-11-17T08:51:19.657Z,170
2016-11-17T08:52:30.688Z,190
2016-11-17T08:53:41.730Z,195
2016-11-17T08:54:52.760Z,145
2016-11-17T08:56:03.842Z,115
2016-11-17T08:57:14.880Z,115
2016-11-17T08:58:25.918Z,120
2016-11-17T08:59:37.135Z,120
2016-11-17T09:00:48.349Z,115
2016-11-17T09:01:59.441Z,130
2016-11-17T09:03:10.471Z,150
2016-11-17T09:04:21.501Z,175
2016-11-17T09:05:32.536Z,180
2016-11-17T09:06:43.569Z,210
2016-11-17T09:07:54.643Z,205
2016-11-17T09:09:05.692Z,205
2016-11-17T09:10:16.726Z,215
2016-11-17T09:11:27.746Z,225
2016-11-17T09:12:38.980Z,245
2016-11-17T09:13:50.066Z,285
2016-11-17T09:15:01.119Z,265
2016-11-17T09:16:12.157Z,250
2016-11-17T09:17:23.195Z,260
2016-11-17T09:18:34.413Z,245
2016-11-17T09:19:45.689Z,225
2016-11-17T09:20:56.923Z,215
2016-11-17T09:22:07.982Z,160
2016-11-17T09:23:19.003Z,150
2016-11-17T09:24:30.233Z,150
2016-11-17T09:25:41.348Z,140
2016-11-17T09:26:52.382Z,125
2016-11-17T09:28:03.408Z,155
2016-11-17T09:29:14.430Z,130
2016-11-17T09:30:25.467Z,120
2016-11-17T09:31:36.541Z,115
2016-11-17T09:32:47.563Z,110
2016-11-17T09:33:58.607Z,105
2016-11-17T09:35:09.641Z,95
2016-11-17T09:36:20.686Z,90
2016-11-17T09:37:31.778Z,100
2016-11-17T09:38:42.812Z,100
2016-11-17T09:39:53.856Z,120
2016-11-17T09:41:04.939Z,170
2016-11-17T09:42:15.982Z,185
2016-11-17T09:43:27.069Z,185
2016-11-17T09:44:38.120Z,200
2016-11-17T09:45:49.170Z,200
2016-11-17T09:47:00.432Z,175
2016-11-17T09:48:11.473Z,205
2016-11-17T09:49:22.543Z,230
2016-11-17T09:50:33.622Z,235
2016-11-17T09:51:44.664Z,220
2016-11-17T09:52:55.710Z,200
2016-11-17T09:54:06.751Z,235
2016-11-17T09:55:17.829Z,270
2016-11-17T09:56:28.847Z,280
2016-11-17T09:57:39.870Z,205
2016-11-17T09:58:50.890Z,205
2016-11-17T10:00:01.972Z,225
2016-11-17T10:01:13.246Z,200
2016-11-17T10:02:24.483Z,180
2016-11-17T10:03:35.508Z,215
2016-11-17T10:04:46.542Z,190
2016-11-17T10:05:57.595Z,275
2016-11-17T10:07:08.695Z,265
2016-11-17T10:08:19.728Z,220
2016-11-17T10:09:30.757Z,185
2016-11-17T10:10:42.202Z,185
2016-11-17T10:11:53.236Z,265
2016-11-17T10:13:04.318Z,325
2016-11-17T10:14:15.355Z,555
2016-11-17T10:15:26.391Z,435
2016-11-17T10:16:37.420Z,805
2016-11-17T10:17:48.615Z,420
2016-11-17T10:18:59.915Z,815
2016-11-17T10:20:10.954Z,440
2016-11-17T10:21:21.997Z,550
2016-11-17T10:22:33.024Z,720
2016-11-17T10:23:44.049Z,405
2016-11-17T10:24:55.134Z,410
2016-11-17T10:26:06.169Z,340
2016-11-17T10:27:17.199Z,345
2016-11-17T10:28:28.232Z,345
2016-11-17T10:29:39.268Z,480
2016-11-17T10:30:50.371Z,440
2016-11-17T10:32:01.440Z,605
2016-11-17T10:33:12.786Z,760
2016-11-17T10:34:23.809Z,630
2016-11-17T10:35:34.842Z,750
2016-11-17T10:36:45.926Z,840
2016-11-17T10:37:56.958Z,825
2016-11-17T10:39:07.994Z,915
2016-11-17T10:40:19.024Z,780
2016-11-17T10:41:30.054Z,495
2016-11-17T10:42:41.171Z,510
2016-11-17T10:43:52.203Z,365
2016-11-17T10:45:03.435Z,315
2016-11-17T10:46:14.472Z,305
2016-11-17T10:47:25.500Z,280
2016-11-17T10:48:36.574Z,360
2016-11-17T10:49:47.811Z,440
2016-11-17T10:50:58.846Z,355
2016-11-17T10:52:09.889Z,315
2016-11-17T10:53:20.916Z,305
2016-11-17T10:54:32.005Z,370
2016-11-17T10:55:43.033Z,580
2016-11-17T10:56:54.080Z,1030
2016-11-17T10:58:05.309Z,870
2016-11-17T10:59:16.346Z,1025
2016-11-17T11:00:27.431Z,1100
2016-11-17T11:01:38.471Z,700
2016-11-17T11:02:49.505Z,1125
2016-11-17T11:04:00.538Z,470
2016-11-17T11:05:11.582Z,1035
2016-11-17T11:06:22.664Z,485
2016-11-17T11:07:33.709Z,870
2016-11-17T11:08:44.949Z,430
2016-11-17T11:09:56.005Z,780
2016-11-17T11:11:07.028Z,995
2016-11-17T11:12:18.110Z,1000
2016-11-17T11:13:29.147Z,630
2016-11-17T11:14:40.182Z,840
2016-11-17T11:15:51.217Z,755
2016-11-17T11:17:02.466Z,970
2016-11-17T11:18:13.544Z,845
2016-11-17T11:19:24.582Z,790
2016-11-17T11:20:35.613Z,760
2016-11-17T11:21:46.637Z,625
2016-11-17T11:22:57.685Z,835
2016-11-17T11:24:08.769Z,720
2016-11-17T11:25:19.805Z,825
2016-11-17T11:26:30.845Z,805
2016-11-17T11:27:41.883Z,815
2016-11-17T11:28:53.129Z,795
2016-11-17T11:30:04.223Z,1095
2016-11-17T11:31:15.472Z,805
2016-11-17T11:32:26.507Z,920
2016-11-17T11:33:37.540Z,1065
2016-11-17T11:34:48.565Z,965
2016-11-17T11:35:59.667Z,685
2016-11-17T11:37:10.709Z,935
2016-11-17T11:38:21.756Z,1040
2016-11-17T11:39:32.783Z,1055
2016-11-17T11:40:43.834Z,1035
2016-11-17T11:41:54.918Z,850
2016-11-17T11:43:06.355Z,965
2016-11-17T11:44:17.586Z,830
2016-11-17T11:45:28.617Z,665
2016-11-17T11:46:39.672Z,750
2016-11-17T11:47:51.165Z,785
2016-11-17T11:49:02.195Z,765
2016-11-17T11:50:13.233Z,680
2016-11-17T11:51:24.277Z,555
2016-11-17T11:52:35.325Z,395
2016-11-17T11:53:46.400Z,360
2016-11-17T11:54:57.437Z,280
2016-11-17T11:56:08.505Z,305
2016-11-17T11:57:19.946Z,390
2016-11-17T11:58:30.968Z,295
2016-11-17T11:59:42.062Z,315
2016-11-17T12:00:53.104Z,825
2016-11-17T12:02:04.140Z,875
2016-11-17T12:03:15.177Z,695
2016-11-17T12:04:26.241Z,690
2016-11-17T12:05:37.361Z,500
2016-11-17T12:06:48.392Z,470
2016-11-17T12:07:59.662Z,350
2016-11-17T12:09:10.906Z,285
2016-11-17T12:10:22.148Z,270
2016-11-17T12:11:33.241Z,275
2016-11-17T12:12:44.470Z,240
2016-11-17T12:13:55.497Z,225
2016-11-17T12:15:06.519Z,220
2016-11-17T12:16:17.553Z,235
2016-11-17T12:17:28.637Z,220
2016-11-17T12:18:39.865Z,190
2016-11-17T12:19:50.901Z,175
2016-11-17T12:21:02.136Z,185
2016-11-17T12:22:13.176Z,180
2016-11-17T12:23:24.439Z,210
2016-11-17T12:24:35.465Z,255
2016-11-17T12:25:46.698Z,315
2016-11-17T12:26:57.732Z,330
2016-11-17T12:28:08.751Z,380
2016-11-17T12:29:20.041Z,305
2016-11-17T12:30:31.083Z,270
2016-11-17T12:31:42.119Z,265
2016-11-17T12:32:53.156Z,255
2016-11-17T12:34:04.187Z,245
2016-11-17T12:35:15.262Z,240
2016-11-17T12:36:26.290Z,220
2016-11-17T12:37:37.340Z,225
2016-11-17T12:38:48.546Z,215
2016-11-17T12:39:59.611Z,205
2016-11-17T12:41:10.699Z,205
2016-11-17T12:42:21.727Z,200
2016-11-17T12:43:33.163Z,185
2016-11-17T12:44:44.209Z,155
2016-11-17T12:45:55.230Z,135
2016-11-17T12:47:06.301Z,120
2016-11-17T12:48:17.335Z,125
2016-11-17T12:49:28.360Z,125
2016-11-17T12:50:39.391Z,130
2016-11-17T12:51:50.427Z,115
2016-11-17T12:53:01.512Z,100
2016-11-17T12:54:12.757Z,95
2016-11-17T12:55:23.989Z,85
2016-11-17T12:56:35.032Z,85
2016-11-17T12:57:46.074Z,90
2016-11-17T12:58:57.151Z,80
2016-11-17T13:00:08.168Z,70
2016-11-17T13:01:19.196Z,55
2016-11-17T13:02:30.432Z,50
2016-11-17T13:03:41.484Z,45
2016-11-17T13:04:52.581Z,55
2016-11-17T13:06:03.609Z,70
2016-11-17T13:07:14.652Z,60
2016-11-17T13:08:25.682Z,65
2016-11-17T13:09:36.695Z,70
2016-11-17T13:10:47.768Z,55
2016-11-17T13:11:58.792Z,55
2016-11-17T13:13:09.825Z,50
2016-11-17T13:14:20.858Z,45
2016-11-17T13:15:31.897Z,45
2016-11-17T13:16:42.972Z,45
2016-11-17T13:17:54.004Z,45
2016-11-17T13:19:05.435Z,45
2016-11-17T13:20:16.675Z,45
2016-11-17T13:21:27.702Z,50
2016-11-17T13:22:38.791Z,45
2016-11-17T13:23:50.031Z,40
2016-11-17T13:25:01.060Z,35
2016-11-17T13:26:12.098Z,35
2016-11-17T13:27:23.186Z,40
2016-11-17T13:28:34.267Z,45
2016-11-17T13:29:45.304Z,45
2016-11-17T13:30:56.326Z,55
2016-11-17T13:32:07.350Z,50
2016-11-17T13:33:18.366Z,45
2016-11-17T13:34:29.453Z,50
2016-11-17T13:35:40.489Z,55
2016-11-17T13:36:51.517Z,60
2016-11-17T13:38:02.756Z,60
2016-11-17T13:39:13.773Z,50
2016-11-17T13:40:25.060Z,45
2016-11-17T13:41:36.298Z,40
2016-11-17T13:42:47.341Z,35
2016-11-17T13:43:58.571Z,30
2016-11-17T13:45:09.613Z,40
2016-11-17T13:46:20.685Z,40
2016-11-17T13:47:31.717Z,35
2016-11-17T13:48:42.759Z,30
2016-11-17T13:49:54.003Z,25
2016-11-17T13:51:05.031Z,25
2016-11-17T13:52:16.112Z,25
2016-11-17T13:53:27.353Z,35
2016-11-17T13:54:38.389Z,45
2016-11-17T13:55:49.448Z,55
2016-11-17T13:57:00.477Z,60
2016-11-17T13:58:11.563Z,50
2016-11-17T13:59:22.605Z,35
2016-11-17T14:00:33.635Z,35
2016-11-17T14:01:44.660Z,45
2016-11-17T14:02:55.699Z,65
2016-11-17T14:04:06.806Z,80
2016-11-17T14:05:17.848Z,85
2016-11-17T14:06:28.875Z,75
2016-11-17T14:07:39.905Z,65
2016-11-17T14:08:50.917Z,60
2016-11-17T14:10:01.989Z,55
2016-11-17T14:11:13.226Z,50
2016-11-17T14:12:24.297Z,45
2016-11-17T14:13:35.335Z,40
2016-11-17T14:14:46.371Z,30
2016-11-17T14:15:57.440Z,25
2016-11-17T14:17:08.469Z,30
2016-11-17T14:18:19.499Z,35
2016-11-17T14:19:30.553Z,40
2016-11-17T14:20:41.582Z,40
2016-11-17T14:21:52.657Z,45
2016-11-17T14:23:03.693Z,40
2016-11-17T14:24:14.945Z,35
2016-11-17T14:25:25.965Z,35
2016-11-17T14:26:37.197Z,30
2016-11-17T14:27:48.276Z,30
2016-11-17T14:28:59.309Z,40
2016-11-17T14:30:10.351Z,40
2016-11-17T14:31:21.378Z,35
2016-11-17T14:32:32.414Z,25
2016-11-17T14:33:43.498Z,15
2016-11-17T14:34:54.531Z,10
2016-11-17T14:36:05.774Z,10
2016-11-17T14:37:16.837Z,5
2016-11-17T14:38:27.878Z,5
2016-11-17T14:39:38.972Z,5
2016-11-17T14:40:50.006Z,10
2016-11-17T14:42:01.031Z,10
2016-11-17T14:43:12.097Z,10
2016-11-17T14:44:23.119Z,10
2016-11-17T14:45:34.192Z,10
2016-11-17T14:46:45.214Z,5
2016-11-17T14:47:56.250Z,5
2016-11-17T14:49:07.272Z,5
2016-11-17T14:50:18.328Z,5
2016-11-17T14:51:29.410Z,5
2016-11-17T14:52:40.443Z,5
2016-11-17T14:53:51.481Z,5
2016-11-17T14:55:02.534Z,0
2016-11-17T14:56:13.571Z,0
2016-11-17T14:57:24.754Z,0
2016-11-17T14:58:35.985Z,0
2016-11-17T14:59:47.007Z,0
2016-11-17T15:00:58.232Z,0
2016-11-17T15:02:09.456Z,0
2016-11-17T15:03:20.534Z,0
2016-11-17T15:04:31.571Z,0
2016-11-17T15:05:42.610Z,0
2016-11-17T15:06:53.640Z,5
2016-11-17T15:08:04.680Z,5
2016-11-17T15:09:15.753Z,5
2016-11-17T15:10:26.772Z,5
2016-11-17T15:11:37.813Z,5
2016-11-17T15:12:48.839Z,5
2016-11-17T15:13:59.869Z,0
2016-11-17T15:15:10.959Z,0
2016-11-17T15:16:22.185Z,0
2016-11-17T15:17:33.209Z,5
2016-11-17T15:18:44.234Z,5
2016-11-17T15:19:55.251Z,0
2016-11-17T15:21:06.536Z,0
2016-11-17T15:22:17.576Z,0
2016-11-17T15:23:28.601Z,0
2016-11-17T15:24:39.623Z,0
2016-11-17T15:25:50.861Z,5
2016-11-17T15:27:01.948Z,5
2016-11-17T15:28:12.974Z,5
2016-11-17T15:29:23.998Z,0
2016-11-17T15:30:35.233Z,0
2016-11-17T15:31:46.253Z,0
2016-11-17T15:32:57.327Z,0
2016-11-17T15:34:08.346Z,0
2016-11-17T15:35:19.368Z,0
2016-11-17T15:36:30.385Z,0
2016-11-17T15:37:41.410Z,0
2016-11-17T15:38:52.484Z,0
2016-11-17T15:40:03.526Z,0
2016-11-17T15:41:14.790Z,0
2016-11-17T15:42:25.824Z,0
2016-11-17T15:43:36.852Z,0
2016-11-17T15:44:47.981Z,0
2016-11-17T15:45:59.213Z,0
2016-11-17T15:47:10.454Z,0
2016-11-17T15:48:21.488Z,0
2016-11-17T15:49:32.537Z,0
2016-11-17T15:50:43.621Z,0
2016-11-17T15:51:54.646Z,0
2016-11-17T15:53:05.677Z,0
2016-11-17T15:54:16.917Z,0
2016-11-17T15:55:27.949Z,0
2016-11-17T15:56:39.026Z,0
2016-11-17T15:57:50.069Z,0
2016-11-17T15:59:01.101Z,0
2016-11-17T16:00:12.174Z,0
2016-11-17T16:01:23.193Z,0
2016-11-17T16:02:34.279Z,0
2016-11-17T16:03:45.364Z,0
2016-11-17T16:04:56.419Z,0
2016-11-17T16:06:07.646Z,0
2016-11-17T16:07:18.877Z,0
2016-11-17T16:08:29.970Z,0
2016-11-17T16:09:41.007Z,0
2016-11-17T16:10:52.029Z,0
2016-11-17T16:12:03.061Z,0
2016-11-17T16:13:14.086Z,0
2016-11-17T16:14:25.188Z,0
2016-11-17T16:15:36.228Z,0
2016-11-17T16:16:47.301Z,0
2016-11-17T16:17:58.335Z,0
2016-11-17T16:19:09.388Z,0
2016-11-17T16:20:20.501Z,0
2016-11-17T16:21:31.544Z,0
2016-11-17T16:22:42.563Z,0
2016-11-17T16:23:53.591Z,0
2016-11-17T16:25:04.628Z,0
2016-11-17T16:26:15.691Z,0
2016-11-17T16:27:26.766Z,0
2016-11-17T16:28:37.796Z,0
2016-11-17T16:29:48.832Z,0
2016-11-17T16:31:00.049Z,0
2016-11-17T16:32:11.562Z,0
2016-11-17T16:33:22.596Z,0
2016-11-17T16:34:33.652Z,0
2016-11-17T16:35:44.682Z,0
2016-11-17T16:36:55.720Z,0
2016-11-17T16:38:06.803Z,0
2016-11-17T16:39:17.847Z,0
2016-11-17T16:40:28.887Z,0
2016-11-17T16:41:39.917Z,0
2016-11-17T16:42:50.951Z,0
2016-11-17T16:44:02.070Z,0
2016-11-17T16:45:13.303Z,0
2016-11-17T16:46:24.316Z,0
2016-11-17T16:47:35.374Z,0
2016-11-17T16:48:46.621Z,0
2016-11-17T16:49:58.104Z,0
2016-11-17T16:51:09.126Z,0
2016-11-17T16:52:20.152Z,0
2016-11-17T16:53:31.177Z,0
2016-11-17T16:54:42.199Z,0
2016-11-17T16:55:53.276Z,0
2016-11-17T16:57:04.316Z,0
2016-11-17T16:58:15.353Z,0
2016-11-17T16:59:26.381Z,0
2016-11-17T17:00:37.603Z,0
2016-11-17T17:01:48.687Z,0
2016-11-17T17:02:59.708Z,0
2016-11-17T17:04:10.738Z,0